createdAt,value
2023-01-09T00:00:53.414Z,2.87
2023-01-09T00:03:20.043Z,2.87
2023-01-09T00:05:46.670Z,2.80
2023-01-09T00:08:13.088Z,2.72
2023-01-09T00:10:39.845Z,2.64
2023-01-09T00:13:06.390Z,2.56
2023-01-09T00:15:34.149Z,2.58
2023-01-09T00:18:00.585Z,2.55
2023-01-09T00:20:27.039Z,2.53
2023-01-09T00:22:53.499Z,2.62
2023-01-09T00:25:19.924Z,2.57
2023-01-09T00:27:46.457Z,2.43
2023-01-09T00:30:13.044Z,2.32
2023-01-09T00:32:40.646Z,2.20
2023-01-09T00:35:12.007Z,2.10
2023-01-09T00:37:38.650Z,2.04
2023-01-09T00:40:05.749Z,2.03
2023-01-09T00:42:33.826Z,1.98
2023-01-09T00:45:04.632Z,1.96
2023-01-09T00:47:41.817Z,1.95
2023-01-09T00:50:14.610Z,1.91
2023-01-09T00:52:41.969Z,1.87
2023-01-09T00:55:09.636Z,1.82
2023-01-09T00:57:36.477Z,1.81
2023-01-09T01:00:05.038Z,1.81
2023-01-09T01:02:31.677Z,1.80
2023-01-09T01:04:58.273Z,1.81
2023-01-09T01:07:24.718Z,1.83
2023-01-09T01:09:51.293Z,1.78
2023-01-09T01:12:17.718Z,1.78
2023-01-09T01:14:44.413Z,1.71
2023-01-09T01:17:14.556Z,1.65
2023-01-09T01:19:41.080Z,1.66
2023-01-09T01:22:07.715Z,1.65
2023-01-09T01:24:34.344Z,1.57
2023-01-09T01:27:00.951Z,1.52
2023-01-09T01:29:27.961Z,1.45
2023-01-09T01:31:54.375Z,1.37
2023-01-09T01:34:20.829Z,1.29
2023-01-09T01:36:47.376Z,1.25
2023-01-09T01:39:13.923Z,1.24
2023-01-09T01:41:40.463Z,1.31
2023-01-09T01:44:45.704Z,1.32
2023-01-09T01:47:13.542Z,1.31
2023-01-09T01:49:40.044Z,1.29
2023-01-09T01:52:07.433Z,1.25
2023-01-09T01:54:34.326Z,1.24
2023-01-09T01:57:04.578Z,1.19
2023-01-09T01:59:40.670Z,1.14
2023-01-09T02:02:09.190Z,1.11
2023-01-09T02:04:38.621Z,1.07
2023-01-09T02:07:09.702Z,1.01
2023-01-09T02:09:38.959Z,0.93
2023-01-09T02:12:28.041Z,0.84
2023-01-09T02:15:01.537Z,0.78
2023-01-09T02:17:43.267Z,0.73
2023-01-09T02:20:28.114Z,0.72
2023-01-09T02:23:34.891Z,0.68
2023-01-09T02:26:28.915Z,0.65
2023-01-09T02:29:29.432Z,0.60
2023-01-09T02:32:20.003Z,0.54
2023-01-09T02:35:05.747Z,0.54
2023-01-09T02:37:57.234Z,0.52
2023-01-09T02:40:33.833Z,0.46
2023-01-09T02:43:01.662Z,0.43
2023-01-09T02:45:28.250Z,0.41
2023-01-09T02:47:54.866Z,0.38
2023-01-09T02:50:27.859Z,0.34
2023-01-09T02:53:13.444Z,0.35
2023-01-09T02:56:12.753Z,0.32
2023-01-09T02:58:53.868Z,0.36
2023-01-09T03:01:45.707Z,0.39
2023-01-09T03:04:24.355Z,0.39
2023-01-09T03:07:17.006Z,0.39
2023-01-09T03:09:48.492Z,0.41
2023-01-09T03:12:20.358Z,0.44
2023-01-09T03:14:48.917Z,0.56
2023-01-09T03:17:22.946Z,0.87
2023-01-09T03:19:52.518Z,1.19
2023-01-09T03:22:19.018Z,1.41
2023-01-09T03:24:45.551Z,1.46
2023-01-09T03:27:12.732Z,1.52
2023-01-09T03:29:39.432Z,1.51
2023-01-09T03:32:06.497Z,1.45
2023-01-09T03:34:32.909Z,1.43
2023-01-09T03:36:59.314Z,1.42
2023-01-09T03:39:25.748Z,1.37
2023-01-09T03:41:52.204Z,1.30
2023-01-09T03:44:18.641Z,1.22
2023-01-09T03:46:45.132Z,1.14
2023-01-09T03:49:11.789Z,1.06
2023-01-09T03:51:38.311Z,0.99
2023-01-09T03:54:04.762Z,0.95
2023-01-09T03:56:31.389Z,0.94
2023-01-09T03:58:57.814Z,0.92
2023-01-09T04:01:24.441Z,0.93
2023-01-09T04:03:51.158Z,0.95
2023-01-09T04:06:17.574Z,0.94
2023-01-09T04:08:44.089Z,0.98
2023-01-09T04:11:10.659Z,1.15
2023-01-09T04:13:37.170Z,1.21
2023-01-09T04:16:04.095Z,1.25
2023-01-09T04:18:30.718Z,1.29
2023-01-09T04:20:57.402Z,1.28
2023-01-09T04:23:23.785Z,1.33
2023-01-09T04:25:50.224Z,1.36
2023-01-09T04:28:16.645Z,1.35
2023-01-09T04:30:43.076Z,1.37
2023-01-09T04:33:09.792Z,1.43
2023-01-09T04:35:36.437Z,1.42
2023-01-09T04:38:02.974Z,1.39
2023-01-09T04:40:29.523Z,1.40
2023-01-09T04:42:56.097Z,1.43
2023-01-09T04:45:22.600Z,1.44
2023-01-09T04:47:49.136Z,1.44
2023-01-09T04:50:16.090Z,1.44
2023-01-09T04:52:42.838Z,1.42
2023-01-09T04:55:09.710Z,1.41
2023-01-09T04:57:36.722Z,1.40
2023-01-09T05:00:04.725Z,1.41
2023-01-09T05:02:31.236Z,1.45
2023-01-09T05:04:57.687Z,1.46
2023-01-09T05:07:24.247Z,1.46
2023-01-09T05:09:50.705Z,1.48
2023-01-09T05:12:17.216Z,1.53
2023-01-09T05:14:43.765Z,1.55
2023-01-09T05:17:10.272Z,1.55
2023-01-09T05:19:36.708Z,1.63
2023-01-09T05:22:03.482Z,1.94
2023-01-09T05:24:30.027Z,1.99
2023-01-09T05:26:56.501Z,2.25
2023-01-09T05:29:22.983Z,2.63
2023-01-09T05:31:49.439Z,3.53
2023-01-09T05:34:15.978Z,4.35
2023-01-09T05:36:42.382Z,5.18
2023-01-09T05:39:09.055Z,5.88
2023-01-09T05:41:35.458Z,6.30
2023-01-09T05:44:01.937Z,6.57
2023-01-09T05:46:28.491Z,6.77
2023-01-09T05:48:54.920Z,7.07
2023-01-09T05:51:21.366Z,7.35
2023-01-09T05:53:47.914Z,7.59
2023-01-09T05:56:14.943Z,7.77
2023-01-09T05:58:41.566Z,7.90
2023-01-09T06:01:08.318Z,8.02
2023-01-09T06:03:34.828Z,8.25
2023-01-09T06:06:01.287Z,8.53
2023-01-09T06:08:27.762Z,8.64
2023-01-09T06:10:54.302Z,8.73
2023-01-09T06:13:20.735Z,8.81
2023-01-09T06:15:48.463Z,8.87
2023-01-09T06:18:15.564Z,8.91
2023-01-09T06:20:42.060Z,8.95
2023-01-09T06:23:08.489Z,8.97
2023-01-09T06:25:34.973Z,8.99
2023-01-09T06:28:01.514Z,9.01
2023-01-09T06:30:28.046Z,9.07
2023-01-09T06:32:54.690Z,9.09
2023-01-09T06:35:21.124Z,9.06
2023-01-09T06:37:48.736Z,9.01
2023-01-09T06:40:16.257Z,8.94
2023-01-09T06:42:44.644Z,8.95
2023-01-09T06:45:12.101Z,9.00
2023-01-09T06:47:38.729Z,9.01
2023-01-09T06:50:06.156Z,9.06
2023-01-09T06:52:32.759Z,9.16
2023-01-09T06:54:59.279Z,9.22
2023-01-09T06:57:25.700Z,9.25
2023-01-09T06:59:52.149Z,9.26
2023-01-09T07:02:20.539Z,9.24
2023-01-09T07:04:47.397Z,9.25
2023-01-09T07:07:16.278Z,9.25
2023-01-09T07:09:42.816Z,9.25
2023-01-09T07:12:09.200Z,9.25
2023-01-09T07:14:35.758Z,9.28
2023-01-09T07:17:02.203Z,9.31
2023-01-09T07:19:28.581Z,9.34
2023-01-09T07:21:55.102Z,9.34
2023-01-09T07:24:21.515Z,9.32
2023-01-09T07:26:47.938Z,9.30
2023-01-09T07:29:14.520Z,9.28
2023-01-09T07:31:41.021Z,9.26
2023-01-09T07:34:07.581Z,9.23
2023-01-09T07:36:34.245Z,9.23
2023-01-09T07:39:00.785Z,9.22
2023-01-09T07:41:27.228Z,9.20
2023-01-09T07:43:53.876Z,9.18
2023-01-09T07:46:20.323Z,9.15
2023-01-09T07:48:46.898Z,9.13
2023-01-09T07:51:13.589Z,9.13
2023-01-09T07:53:40.337Z,9.13
2023-01-09T07:56:07.076Z,9.15
2023-01-09T07:58:33.501Z,9.15
2023-01-09T08:01:00.106Z,9.15
2023-01-09T08:03:26.857Z,9.17
2023-01-09T08:05:53.567Z,9.23
2023-01-09T08:08:20.083Z,9.32
2023-01-09T08:10:46.715Z,9.40
2023-01-09T08:13:13.157Z,9.46
2023-01-09T08:15:39.771Z,9.50
2023-01-09T08:18:06.238Z,9.55
2023-01-09T08:20:32.688Z,9.64
2023-01-09T08:22:59.134Z,9.74
2023-01-09T08:25:25.680Z,9.82
2023-01-09T08:27:52.165Z,9.83
2023-01-09T08:30:19.380Z,9.86
2023-01-09T08:32:54.081Z,9.91
2023-01-09T08:35:21.363Z,9.96
2023-01-09T08:37:48.663Z,10.00
2023-01-09T08:40:17.464Z,10.08
2023-01-09T08:42:44.358Z,10.14
2023-01-09T08:45:12.475Z,10.19
2023-01-09T08:47:39.241Z,10.24
2023-01-09T08:50:06.002Z,10.27
2023-01-09T08:52:32.528Z,10.29
2023-01-09T08:54:59.037Z,10.31
2023-01-09T08:57:25.472Z,10.34
2023-01-09T08:59:51.958Z,10.38
2023-01-09T09:02:18.511Z,10.42
2023-01-09T09:04:44.927Z,10.46
2023-01-09T09:07:11.368Z,10.52
2023-01-09T09:09:38.001Z,10.57
2023-01-09T09:12:05.049Z,10.64
2023-01-09T09:14:31.460Z,10.69
2023-01-09T09:16:58.070Z,10.75
2023-01-09T09:19:24.540Z,10.81
2023-01-09T09:21:51.015Z,10.89
2023-01-09T09:24:17.550Z,11.09
2023-01-09T09:26:44.748Z,11.26
2023-01-09T09:29:11.776Z,11.38
2023-01-09T09:31:39.045Z,11.56
2023-01-09T09:34:07.173Z,11.91
2023-01-09T09:36:34.121Z,12.18
2023-01-09T09:39:00.663Z,12.40
2023-01-09T09:42:17.176Z,12.51
2023-01-09T09:44:58.774Z,12.74
2023-01-09T09:47:43.895Z,12.78
2023-01-09T09:50:36.181Z,12.70
2023-01-09T09:53:13.284Z,12.61
2023-01-09T09:55:41.224Z,12.60
2023-01-09T09:58:18.732Z,12.59
2023-01-09T10:00:45.419Z,12.59
2023-01-09T10:03:33.470Z,12.57
2023-01-09T10:06:06.024Z,12.50
2023-01-09T10:08:54.362Z,12.37
2023-01-09T10:11:43.858Z,12.25
2023-01-09T10:14:23.375Z,12.14
2023-01-09T10:17:32.534Z,12.01
2023-01-09T10:20:28.978Z,11.83
2023-01-09T10:23:07.852Z,11.73
2023-01-09T10:25:46.141Z,11.71
2023-01-09T10:28:27.720Z,11.65
2023-01-09T10:31:38.803Z,11.62
2023-01-09T10:34:29.121Z,11.55
2023-01-09T10:37:33.123Z,11.52
2023-01-09T10:40:06.536Z,11.51
2023-01-09T10:42:40.819Z,11.49
2023-01-09T10:45:26.738Z,11.44
2023-01-09T10:48:11.615Z,11.39
2023-01-09T10:50:41.957Z,11.37
2023-01-09T10:53:20.752Z,11.35
2023-01-09T10:55:48.428Z,11.36
2023-01-09T10:58:18.051Z,11.33
2023-01-09T11:00:46.443Z,11.27
2023-01-09T11:03:15.424Z,11.20
2023-01-09T11:05:42.856Z,11.17
2023-01-09T11:08:09.323Z,11.16
2023-01-09T11:10:49.680Z,11.18
2023-01-09T11:13:26.566Z,11.21
2023-01-09T11:16:10.787Z,11.27
2023-01-09T11:18:40.901Z,11.32
2023-01-09T11:21:28.373Z,11.37
2023-01-09T11:23:56.348Z,11.40
2023-01-09T11:26:27.818Z,11.46
2023-01-09T11:29:17.464Z,11.52
2023-01-09T11:31:52.516Z,11.56
2023-01-09T11:34:22.553Z,11.60
2023-01-09T11:36:51.964Z,11.62
2023-01-09T11:39:33.869Z,11.62
2023-01-09T11:42:06.412Z,11.61
2023-01-09T11:44:33.524Z,11.57
2023-01-09T11:47:00.089Z,11.49
2023-01-09T11:49:31.411Z,11.45
2023-01-09T11:52:17.597Z,11.45
2023-01-09T11:54:59.171Z,11.50
2023-01-09T11:58:10.238Z,11.54
2023-01-09T12:01:03.217Z,11.54
2023-01-09T12:03:41.021Z,11.49
2023-01-09T12:06:29.574Z,11.49
2023-01-09T12:09:01.252Z,11.45
2023-01-09T12:11:32.116Z,11.38
2023-01-09T12:14:19.421Z,11.36
2023-01-09T12:16:51.673Z,11.36
2023-01-09T12:19:27.204Z,11.33
2023-01-09T12:22:07.985Z,11.29
2023-01-09T12:24:40.593Z,11.26
2023-01-09T12:27:31.605Z,11.28
2023-01-09T12:30:38.322Z,11.27
2023-01-09T12:33:14.002Z,11.19
2023-01-09T12:35:46.747Z,11.07
2023-01-09T12:38:37.966Z,10.92
2023-01-09T12:41:16.468Z,10.75
2023-01-09T12:44:06.253Z,10.64
2023-01-09T12:46:57.001Z,10.56
2023-01-09T12:49:39.540Z,10.52
2023-01-09T12:52:12.781Z,10.49
2023-01-09T12:54:42.280Z,10.47
2023-01-09T12:57:23.829Z,10.46
2023-01-09T13:00:01.260Z,10.44
2023-01-09T13:02:36.853Z,10.43
2023-01-09T13:05:13.725Z,10.43
2023-01-09T13:08:05.246Z,10.43
2023-01-09T13:10:39.184Z,10.42
2023-01-09T13:13:20.535Z,10.40
2023-01-09T13:16:04.301Z,10.40
2023-01-09T13:18:45.667Z,10.40
2023-01-09T13:21:13.528Z,10.36
2023-01-09T13:24:28.616Z,10.31
2023-01-09T13:27:06.821Z,10.23
2023-01-09T13:29:38.384Z,10.16
2023-01-09T13:32:34.214Z,10.10
2023-01-09T13:35:00.857Z,10.03
2023-01-09T13:37:30.444Z,9.98
2023-01-09T13:40:02.773Z,9.93
2023-01-09T13:42:29.593Z,9.90
2023-01-09T13:45:08.926Z,9.86
2023-01-09T13:47:35.465Z,9.80
2023-01-09T13:50:22.517Z,9.74
2023-01-09T13:52:49.876Z,9.69
2023-01-09T13:55:16.513Z,9.68
2023-01-09T13:58:05.114Z,9.70
2023-01-09T14:00:34.772Z,9.75
2023-01-09T14:03:25.529Z,9.79
2023-01-09T14:05:52.008Z,9.85
2023-01-09T14:08:20.989Z,9.89
2023-01-09T14:10:51.979Z,9.92
2023-01-09T14:13:25.423Z,9.90
2023-01-09T14:16:01.626Z,9.89
2023-01-09T14:18:50.485Z,9.89
2023-01-09T14:21:17.665Z,9.86
2023-01-09T14:24:04.402Z,9.75
2023-01-09T14:26:43.378Z,9.63
2023-01-09T14:29:28.674Z,9.53
2023-01-09T14:32:21.249Z,9.42
2023-01-09T14:35:07.004Z,9.30
2023-01-09T14:37:37.110Z,9.17
2023-01-09T14:40:08.282Z,9.07
2023-01-09T14:42:40.348Z,8.94
2023-01-09T14:45:14.906Z,8.81
2023-01-09T14:48:11.765Z,8.69
2023-01-09T14:50:44.927Z,8.57
2023-01-09T14:53:17.097Z,8.46
2023-01-09T14:56:01.229Z,8.39
2023-01-09T14:58:28.734Z,8.32
2023-01-09T15:01:05.969Z,8.27
2023-01-09T15:03:40.844Z,8.23
2023-01-09T15:06:15.581Z,8.17
2023-01-09T15:08:45.275Z,8.13
2023-01-09T15:11:13.464Z,8.13
2023-01-09T15:13:46.858Z,8.13
2023-01-09T15:16:20.089Z,8.10
2023-01-09T15:18:52.121Z,8.05
2023-01-09T15:21:23.147Z,7.99
2023-01-09T15:23:50.291Z,7.94
2023-01-09T15:26:30.080Z,7.94
2023-01-09T15:29:16.236Z,7.92
2023-01-09T15:31:45.063Z,7.89
2023-01-09T15:34:20.061Z,7.85
2023-01-09T15:36:46.713Z,7.83
2023-01-09T15:39:28.116Z,7.82
2023-01-09T15:42:22.414Z,7.82
2023-01-09T15:44:51.517Z,7.84
2023-01-09T15:47:24.102Z,7.87
2023-01-09T15:49:51.150Z,7.92
2023-01-09T15:52:18.858Z,7.95
2023-01-09T15:54:46.272Z,8.01
2023-01-09T15:57:25.044Z,8.05
2023-01-09T15:59:56.688Z,8.09
2023-01-09T16:02:24.341Z,8.10
2023-01-09T16:04:54.953Z,8.11
2023-01-09T16:07:21.496Z,8.11
2023-01-09T16:09:49.972Z,8.12
2023-01-09T16:12:22.505Z,8.12
2023-01-09T16:14:56.340Z,8.13
2023-01-09T16:17:23.308Z,8.13
2023-01-09T16:19:55.888Z,8.13
2023-01-09T16:22:33.896Z,8.14
2023-01-09T16:25:22.324Z,8.16
2023-01-09T16:28:27.471Z,8.17
2023-01-09T16:30:58.049Z,8.18
2023-01-09T16:33:27.149Z,8.17
2023-01-09T16:35:54.076Z,8.15
2023-01-09T16:38:21.637Z,8.13
2023-01-09T16:41:13.102Z,8.10
2023-01-09T16:43:39.505Z,8.06
2023-01-09T16:46:05.994Z,8.02
2023-01-09T16:48:33.721Z,7.96
2023-01-09T16:51:00.393Z,7.92
2023-01-09T16:53:26.891Z,7.90
2023-01-09T16:55:54.470Z,7.89
2023-01-09T16:58:29.303Z,7.89
2023-01-09T17:00:56.904Z,7.89
2023-01-09T17:03:23.781Z,7.89
2023-01-09T17:05:53.945Z,7.88
2023-01-09T17:08:26.910Z,7.86
2023-01-09T17:10:55.396Z,7.86
2023-01-09T17:13:22.702Z,7.83
2023-01-09T17:15:49.228Z,7.78
2023-01-09T17:18:17.904Z,7.72
2023-01-09T17:20:47.996Z,7.66
2023-01-09T17:23:14.766Z,7.60
2023-01-09T17:25:42.300Z,7.55
2023-01-09T17:28:18.176Z,7.48
2023-01-09T17:30:44.717Z,7.42
2023-01-09T17:33:18.860Z,7.38
2023-01-09T17:35:45.911Z,7.34
2023-01-09T17:38:16.218Z,7.32
2023-01-09T17:40:43.914Z,7.29
2023-01-09T17:43:11.317Z,7.27
2023-01-09T17:45:42.030Z,7.24
2023-01-09T17:48:15.434Z,7.23
2023-01-09T17:50:42.429Z,7.21
2023-01-09T17:53:08.880Z,7.20
2023-01-09T17:55:35.815Z,7.18
2023-01-09T17:58:02.458Z,7.16
2023-01-09T18:00:32.478Z,7.16
2023-01-09T18:02:58.900Z,7.16
2023-01-09T18:05:26.284Z,7.17
2023-01-09T18:07:52.819Z,7.17
2023-01-09T18:10:22.825Z,7.15
2023-01-09T18:12:51.227Z,7.11
2023-01-09T18:15:18.157Z,7.08
2023-01-09T18:17:44.664Z,6.99
2023-01-09T18:20:11.773Z,6.91
2023-01-09T18:22:38.150Z,6.86
2023-01-09T18:25:05.380Z,6.84
2023-01-09T18:27:32.222Z,6.82
2023-01-09T18:29:58.609Z,6.81
2023-01-09T18:32:25.080Z,6.80
2023-01-09T18:34:51.620Z,6.79
2023-01-09T18:37:18.235Z,6.76
2023-01-09T18:39:45.005Z,6.70
2023-01-09T18:42:11.462Z,6.62
2023-01-09T18:44:37.907Z,6.55
2023-01-09T18:47:04.519Z,6.51
2023-01-09T18:49:31.065Z,6.49
2023-01-09T18:51:57.461Z,6.47
2023-01-09T18:54:23.932Z,6.45
2023-01-09T18:56:50.373Z,6.44
2023-01-09T18:59:16.772Z,6.43
2023-01-09T19:01:43.446Z,6.43
2023-01-09T19:04:10.049Z,6.45
2023-01-09T19:06:36.640Z,6.48
2023-01-09T19:09:03.690Z,6.52
2023-01-09T19:11:30.226Z,6.54
2023-01-09T19:13:56.662Z,6.53
2023-01-09T19:16:23.145Z,6.53
2023-01-09T19:18:49.735Z,6.53
2023-01-09T19:21:18.769Z,6.53
2023-01-09T19:23:47.029Z,6.53
2023-01-09T19:26:24.502Z,6.50
2023-01-09T19:28:51.881Z,6.46
2023-01-09T19:31:18.723Z,6.42
2023-01-09T19:33:45.465Z,6.37
2023-01-09T19:36:12.239Z,6.33
2023-01-09T19:38:38.643Z,6.28
2023-01-09T19:41:09.597Z,6.22
2023-01-09T19:43:36.733Z,6.16
2023-01-09T19:46:07.398Z,6.13
2023-01-09T19:48:34.135Z,6.10
2023-01-09T19:51:06.808Z,6.08
2023-01-09T19:53:35.027Z,6.05
2023-01-09T19:56:12.657Z,6.03
2023-01-09T19:58:40.065Z,6.03
2023-01-09T20:01:14.916Z,6.02
2023-01-09T20:03:43.475Z,6.02
2023-01-09T20:06:12.399Z,6.02
2023-01-09T20:08:39.083Z,6.04
2023-01-09T20:11:05.626Z,6.08
2023-01-09T20:13:33.553Z,6.09
2023-01-09T20:16:01.130Z,6.12
2023-01-09T20:18:32.680Z,6.13
2023-01-09T20:20:59.719Z,6.15
2023-01-09T20:23:28.093Z,6.16
2023-01-09T20:25:56.099Z,6.18
2023-01-09T20:28:23.922Z,6.20
2023-01-09T20:30:51.913Z,6.21
2023-01-09T20:33:20.371Z,6.22
2023-01-09T20:35:47.845Z,6.21
2023-01-09T20:38:14.706Z,6.21
2023-01-09T20:40:41.322Z,6.23
2023-01-09T20:43:07.731Z,6.24
2023-01-09T20:45:34.660Z,6.24
2023-01-09T20:48:01.375Z,6.25
2023-01-09T20:50:28.017Z,6.25
2023-01-09T20:52:54.661Z,6.27
2023-01-09T20:55:21.100Z,6.28
2023-01-09T20:57:47.504Z,6.29
2023-01-09T21:00:14.801Z,6.31
2023-01-09T21:02:41.336Z,6.32
2023-01-09T21:05:08.433Z,6.31
2023-01-09T21:07:34.997Z,6.31
2023-01-09T21:10:01.777Z,6.30
2023-01-09T21:12:28.210Z,6.29
2023-01-09T21:14:55.262Z,6.28
2023-01-09T21:17:21.924Z,6.28
2023-01-09T21:19:49.054Z,6.26
2023-01-09T21:22:18.463Z,6.24
2023-01-09T21:24:48.806Z,6.23
2023-01-09T21:27:15.518Z,6.24
2023-01-09T21:29:41.960Z,6.25
2023-01-09T21:32:08.718Z,6.26
2023-01-09T21:34:35.153Z,6.27
2023-01-09T21:37:01.955Z,6.27
2023-01-09T21:39:28.727Z,6.27
2023-01-09T21:41:55.424Z,6.27
2023-01-09T21:44:21.938Z,6.27
2023-01-09T21:46:48.575Z,6.27
2023-01-09T21:49:15.115Z,6.28
2023-01-09T21:51:42.175Z,6.28
2023-01-09T21:54:09.222Z,6.25
2023-01-09T21:56:35.839Z,6.24
2023-01-09T21:59:03.222Z,6.25
2023-01-09T22:01:29.841Z,6.27
2023-01-09T22:03:57.203Z,6.26
2023-01-09T22:06:24.337Z,6.26
2023-01-09T22:08:51.121Z,6.27
2023-01-09T22:11:17.633Z,6.27
2023-01-09T22:13:49.551Z,6.27
2023-01-09T22:16:17.752Z,6.24
2023-01-09T22:18:44.547Z,6.19
2023-01-09T22:21:11.353Z,6.13
2023-01-09T22:23:37.975Z,6.09
2023-01-09T22:26:13.046Z,6.04
2023-01-09T22:28:40.407Z,5.99
2023-01-09T22:31:11.374Z,5.94
2023-01-09T22:33:37.975Z,5.86
2023-01-09T22:36:06.910Z,5.79
2023-01-09T22:39:17.812Z,5.72
2023-01-09T22:42:28.604Z,5.65
2023-01-09T22:45:39.833Z,5.59
2023-01-09T22:48:50.380Z,5.55
2023-01-09T22:52:01.873Z,5.54
2023-01-09T22:55:12.651Z,5.53
2023-01-09T22:58:23.721Z,5.51
2023-01-09T23:00:50.159Z,5.51
2023-01-09T23:03:16.575Z,5.50
2023-01-09T23:05:43.137Z,5.50
2023-01-09T23:08:09.576Z,5.49
2023-01-09T23:10:36.202Z,5.48
2023-01-09T23:13:02.768Z,5.47
2023-01-09T23:15:29.159Z,5.45
2023-01-09T23:17:55.648Z,5.40
2023-01-09T23:20:22.181Z,5.37
2023-01-09T23:22:48.720Z,5.35
2023-01-09T23:25:15.504Z,5.36
2023-01-09T23:27:42.823Z,5.36
2023-01-09T23:30:10.279Z,5.36
2023-01-09T23:32:36.829Z,5.34
2023-01-09T23:35:03.692Z,5.32
2023-01-09T23:37:30.182Z,5.29
2023-01-09T23:39:56.625Z,5.26
2023-01-09T23:42:23.242Z,5.24
2023-01-09T23:44:49.843Z,5.22
2023-01-09T23:47:16.382Z,5.22
2023-01-09T23:49:42.801Z,5.20
2023-01-09T23:52:09.362Z,5.20
2023-01-09T23:54:35.811Z,5.21
2023-01-09T23:57:02.337Z,5.23
2023-01-09T23:59:28.886Z,5.23
